sensor_id;sensor_type;location;lat;lon;timestamp;temperature;humidity
2056;DHT22;1033;52.560;13.374;2022-08-01T00:00:13;21.10;35.60
2056;DHT22;1033;52.560;13.374;2022-08-01T00:02:42;21.10;36.00
2056;DHT22;1033;52.560;13.374;2022-08-01T00:05:13;21.10;36.80
2056;DHT22;1033;52.560;13.374;2022-08-01T00:07:42;21.00;38.20
2056;DHT22;1033;52.560;13.374;2022-08-01T00:10:14;20.90;40.90
2056;DHT22;1033;52.560;13.374;2022-08-01T00:12:44;20.90;43.20
2056;DHT22;1033;52.560;13.374;2022-08-01T00:15:15;20.90;45.80
2056;DHT22;1033;52.560;13.374;2022-08-01T00:17:45;20.80;49.70
2056;DHT22;1033;52.560;13.374;2022-08-01T00:20:15;20.80;58.00
2056;DHT22;1033;52.560;13.374;2022-08-01T00:22:44;20.70;69.80
2056;DHT22;1033;52.560;13.374;2022-08-01T00:25:13;20.70;77.40
2056;DHT22;1033;52.560;13.374;2022-08-01T00:27:42;20.70;89.50
2056;DHT22;1033;52.560;13.374;2022-08-01T00:30:13;20.60;94.10
2056;DHT22;1033;52.560;13.374;2022-08-01T00:32:42;20.60;98.40
2056;DHT22;1033;52.560;13.374;2022-08-01T00:35:11;20.50;99.90
2056;DHT22;1033;52.560;13.374;2022-08-01T00:37:41;20.30;99.90
2056;DHT22;1033;52.560;13.374;2022-08-01T00:40:11;20.10;99.90
2056;DHT22;1033;52.560;13.374;2022-08-01T00:42:40;20.00;99.90
2056;DHT22;1033;52.560;13.374;2022-08-01T00:45:10;19.90;1.00
2056;DHT22;1033;52.560;13.374;2022-08-01T00:47:40;19.80;1.00
2056;DHT22;1033;52.560;13.374;2022-08-01T00:50:10;19.80;24.90
2056;DHT22;1033;52.560;13.374;2022-08-01T00:52:41;19.70;25.00
2056;DHT22;1033;52.560;13.374;2022-08-01T00:55:18;19.70;50.20
2056;DHT22;1033;52.560;13.374;2022-08-01T00:57:48;19.70;84.70
2056;DHT22;1033;52.560;13.374;2022-08-01T01:00:32;19.60;99.90
2056;DHT22;1033;52.560;13.374;2022-08-01T01:03:21;19.60;99.90
2056;DHT22;1033;52.560;13.374;2022-08-01T01:06:36;19.60;99.90
2056;DHT22;1033;52.560;13.374;2022-08-01T01:09:23;19.60;99.90
2056;DHT22;1033;52.560;13.374;2022-08-01T01:12:05;19.60;99.90
2056;DHT22;1033;52.560;13.374;2022-08-01T01:14:45;19.60;99.90
2056;DHT22;1033;52.560;13.374;2022-08-01T01:17:27;19.70;99.90
2056;DHT22;1033;52.560;13.374;2022-08-01T01:20:20;19.70;99.90
2056;DHT22;1033;52.560;13.374;2022-08-01T01:23:02;19.60;99.90
2056;DHT22;1033;52.560;13.374;2022-08-01T01:25:51;19.70;99.90
2056;DHT22;1033;52.560;13.374;2022-08-01T01:28:40;19.70;99.90
2056;DHT22;1033;52.560;13.374;2022-08-01T01:31:37;19.70;99.90
2056;DHT22;1033;52.560;13.374;2022-08-01T01:34:12;19.80;99.90
2056;DHT22;1033;52.560;13.374;2022-08-01T01:36:44;19.80;1.00
2056;DHT22;1033;52.560;13.374;2022-08-01T01:39:16;19.80;99.90
2056;DHT22;1033;52.560;13.374;2022-08-01T01:41:46;19.80;1.00
2056;DHT22;1033;52.560;13.374;2022-08-01T01:44:18;19.80;99.90
2056;DHT22;1033;52.560;13.374;2022-08-01T01:46:50;19.80;99.90
2056;DHT22;1033;52.560;13.374;2022-08-01T01:49:21;19.80;1.00
2056;DHT22;1033;52.560;13.374;2022-08-01T01:51:56;19.80;1.00
2056;DHT22;1033;52.560;13.374;2022-08-01T01:54:31;19.70;99.90
2056;DHT22;1033;52.560;13.374;2022-08-01T01:57:04;19.70;99.90
2056;DHT22;1033;52.560;13.374;2022-08-01T01:59:37;19.70;99.90
2056;DHT22;1033;52.560;13.374;2022-08-01T02:02:10;19.60;99.90
2056;DHT22;1033;52.560;13.374;2022-08-01T02:04:43;19.50;99.90
2056;DHT22;1033;52.560;13.374;2022-08-01T02:07:17;19.40;99.90
2056;DHT22;1033;52.560;13.374;2022-08-01T02:09:51;19.40;99.90
2056;DHT22;1033;52.560;13.374;2022-08-01T02:12:23;19.40;99.90
2056;DHT22;1033;52.560;13.374;2022-08-01T02:14:53;19.30;99.90
2056;DHT22;1033;52.560;13.374;2022-08-01T02:17:27;19.30;1.00
2056;DHT22;1033;52.560;13.374;2022-08-01T02:19:57;19.20;99.90
2056;DHT22;1033;52.560;13.374;2022-08-01T02:22:30;19.10;1.00
2056;DHT22;1033;52.560;13.374;2022-08-01T02:25:05;19.10;99.90
2056;DHT22;1033;52.560;13.374;2022-08-01T02:27:42;19.00;99.90
2056;DHT22;1033;52.560;13.374;2022-08-01T02:30:19;19.00;1.00
2056;DHT22;1033;52.560;13.374;2022-08-01T02:32:58;18.90;1.00
2056;DHT22;1033;52.560;13.374;2022-08-01T02:35:38;18.90;1.00
2056;DHT22;1033;52.560;13.374;2022-08-01T02:38:32;19.00;99.90
2056;DHT22;1033;52.560;13.374;2022-08-01T02:41:08;19.00;99.90
2056;DHT22;1033;52.560;13.374;2022-08-01T02:43:43;19.00;65.70
2056;DHT22;1033;52.560;13.374;2022-08-01T02:46:25;19.10;1.00
2056;DHT22;1033;52.560;13.374;2022-08-01T02:49:01;19.00;1.00
2056;DHT22;1033;52.560;13.374;2022-08-01T02:51:33;18.90;99.90
2056;DHT22;1033;52.560;13.374;2022-08-01T02:54:05;18.90;1.00
2056;DHT22;1033;52.560;13.374;2022-08-01T02:56:36;18.90;99.90
2056;DHT22;1033;52.560;13.374;2022-08-01T02:59:10;18.80;1.00
2056;DHT22;1033;52.560;13.374;2022-08-01T03:01:49;18.70;99.90
2056;DHT22;1033;52.560;13.374;2022-08-01T03:04:24;18.70;99.90
2056;DHT22;1033;52.560;13.374;2022-08-01T03:06:55;18.80;99.90
2056;DHT22;1033;52.560;13.374;2022-08-01T03:09:26;18.70;99.90
2056;DHT22;1033;52.560;13.374;2022-08-01T03:12:00;18.80;99.90
2056;DHT22;1033;52.560;13.374;2022-08-01T03:14:36;18.80;99.90
2056;DHT22;1033;52.560;13.374;2022-08-01T03:17:08;18.80;99.90
2056;DHT22;1033;52.560;13.374;2022-08-01T03:19:41;18.90;99.90
2056;DHT22;1033;52.560;13.374;2022-08-01T03:22:14;19.00;99.90
2056;DHT22;1033;52.560;13.374;2022-08-01T03:24:47;19.00;99.90
2056;DHT22;1033;52.560;13.374;2022-08-01T03:27:21;19.10;99.90
2056;DHT22;1033;52.560;13.374;2022-08-01T03:29:55;19.00;99.90
2056;DHT22;1033;52.560;13.374;2022-08-01T03:32:27;19.00;99.90
2056;DHT22;1033;52.560;13.374;2022-08-01T03:34:59;19.00;99.90
2056;DHT22;1033;52.560;13.374;2022-08-01T03:37:34;19.00;99.90
2056;DHT22;1033;52.560;13.374;2022-08-01T03:40:31;19.00;99.90
2056;DHT22;1033;52.560;13.374;2022-08-01T03:43:10;19.10;99.90
2056;DHT22;1033;52.560;13.374;2022-08-01T03:45:48;19.20;99.90
2056;DHT22;1033;52.560;13.374;2022-08-01T03:48:27;19.30;99.90
2056;DHT22;1033;52.560;13.374;2022-08-01T03:51:00;19.40;99.90
2056;DHT22;1033;52.560;13.374;2022-08-01T03:53:30;19.40;99.90
2056;DHT22;1033;52.560;13.374;2022-08-01T03:56:07;19.50;99.90
2056;DHT22;1033;52.560;13.374;2022-08-01T03:58:39;19.60;99.90
2056;DHT22;1033;52.560;13.374;2022-08-01T04:01:10;19.60;99.90
2056;DHT22;1033;52.560;13.374;2022-08-01T04:03:42;19.90;99.90
2056;DHT22;1033;52.560;13.374;2022-08-01T04:06:14;19.90;99.90
2056;DHT22;1033;52.560;13.374;2022-08-01T04:08:44;19.90;99.90
2056;DHT22;1033;52.560;13.374;2022-08-01T04:11:24;19.90;99.90
2056;DHT22;1033;52.560;13.374;2022-08-01T04:13:55;19.80;99.90
2056;DHT22;1033;52.560;13.374;2022-08-01T04:16:25;19.80;99.90
2056;DHT22;1033;52.560;13.374;2022-08-01T04:18:54;19.70;99.90
2056;DHT22;1033;52.560;13.374;2022-08-01T04:21:26;19.70;99.90
2056;DHT22;1033;52.560;13.374;2022-08-01T04:24:00;19.70;99.90
2056;DHT22;1033;52.560;13.374;2022-08-01T04:26:33;19.70;99.90
2056;DHT22;1033;52.560;13.374;2022-08-01T04:29:05;19.70;99.90
2056;DHT22;1033;52.560;13.374;2022-08-01T04:31:37;19.80;99.90
2056;DHT22;1033;52.560;13.374;2022-08-01T04:34:12;19.80;99.90
2056;DHT22;1033;52.560;13.374;2022-08-01T04:36:46;19.80;99.90
2056;DHT22;1033;52.560;13.374;2022-08-01T04:39:39;19.90;99.90
2056;DHT22;1033;52.560;13.374;2022-08-01T04:42:17;19.90;99.90
2056;DHT22;1033;52.560;13.374;2022-08-01T04:44:56;19.90;99.90
2056;DHT22;1033;52.560;13.374;2022-08-01T04:47:26;20.00;99.90
2056;DHT22;1033;52.560;13.374;2022-08-01T04:49:55;20.00;99.90
2056;DHT22;1033;52.560;13.374;2022-08-01T04:52:34;20.00;99.90
2056;DHT22;1033;52.560;13.374;2022-08-01T04:55:05;20.00;99.90
2056;DHT22;1033;52.560;13.374;2022-08-01T04:57:35;19.80;99.90
2056;DHT22;1033;52.560;13.374;2022-08-01T05:00:07;19.80;99.90
2056;DHT22;1033;52.560;13.374;2022-08-01T05:02:37;19.60;99.90
2056;DHT22;1033;52.560;13.374;2022-08-01T05:05:07;19.60;99.90
2056;DHT22;1033;52.560;13.374;2022-08-01T05:07:41;19.60;99.90
2056;DHT22;1033;52.560;13.374;2022-08-01T05:10:12;19.70;99.90
2056;DHT22;1033;52.560;13.374;2022-08-01T05:12:41;19.70;99.90
2056;DHT22;1033;52.560;13.374;2022-08-01T05:15:10;19.60;99.90
2056;DHT22;1033;52.560;13.374;2022-08-01T05:17:41;19.50;99.90
2056;DHT22;1033;52.560;13.374;2022-08-01T05:20:11;19.50;99.90
2056;DHT22;1033;52.560;13.374;2022-08-01T05:22:42;19.50;99.90
2056;DHT22;1033;52.560;13.374;2022-08-01T05:25:11;19.50;99.90
2056;DHT22;1033;52.560;13.374;2022-08-01T05:27:46;19.50;99.90
2056;DHT22;1033;52.560;13.374;2022-08-01T05:30:17;19.60;99.90
2056;DHT22;1033;52.560;13.374;2022-08-01T05:32:46;19.60;99.90
2056;DHT22;1033;52.560;13.374;2022-08-01T05:35:15;19.70;99.90
2056;DHT22;1033;52.560;13.374;2022-08-01T05:37:46;19.60;99.90
2056;DHT22;1033;52.560;13.374;2022-08-01T05:40:14;19.70;99.90
2056;DHT22;1033;52.560;13.374;2022-08-01T05:42:44;19.70;99.90
2056;DHT22;1033;52.560;13.374;2022-08-01T05:45:12;19.80;99.90
2056;DHT22;1033;52.560;13.374;2022-08-01T05:47:42;19.90;99.90
2056;DHT22;1033;52.560;13.374;2022-08-01T05:50:11;20.00;99.90
2056;DHT22;1033;52.560;13.374;2022-08-01T05:52:40;20.00;99.90
2056;DHT22;1033;52.560;13.374;2022-08-01T05:55:10;20.00;99.90
2056;DHT22;1033;52.560;13.374;2022-08-01T05:57:39;20.00;99.90
2056;DHT22;1033;52.560;13.374;2022-08-01T06:00:09;20.00;99.90
2056;DHT22;1033;52.560;13.374;2022-08-01T06:02:40;20.10;99.90
2056;DHT22;1033;52.560;13.374;2022-08-01T06:05:10;20.10;99.90
2056;DHT22;1033;52.560;13.374;2022-08-01T06:07:40;20.20;99.90
2056;DHT22;1033;52.560;13.374;2022-08-01T06:10:10;20.20;99.90
2056;DHT22;1033;52.560;13.374;2022-08-01T06:12:39;20.10;99.90
2056;DHT22;1033;52.560;13.374;2022-08-01T06:15:10;20.10;99.90
2056;DHT22;1033;52.560;13.374;2022-08-01T06:17:39;20.20;99.90
2056;DHT22;1033;52.560;13.374;2022-08-01T06:20:09;20.30;99.90
2056;DHT22;1033;52.560;13.374;2022-08-01T06:22:39;20.20;99.90
2056;DHT22;1033;52.560;13.374;2022-08-01T06:25:10;20.10;99.90
2056;DHT22;1033;52.560;13.374;2022-08-01T06:27:39;20.00;99.90
2056;DHT22;1033;52.560;13.374;2022-08-01T06:30:09;19.80;99.90
2056;DHT22;1033;52.560;13.374;2022-08-01T06:32:38;20.00;99.90
2056;DHT22;1033;52.560;13.374;2022-08-01T06:35:08;20.10;99.90
2056;DHT22;1033;52.560;13.374;2022-08-01T06:37:37;20.20;99.90
2056;DHT22;1033;52.560;13.374;2022-08-01T06:40:08;20.30;99.90
2056;DHT22;1033;52.560;13.374;2022-08-01T06:42:44;20.40;99.90
2056;DHT22;1033;52.560;13.374;2022-08-01T06:45:14;20.60;99.90
2056;DHT22;1033;52.560;13.374;2022-08-01T06:47:44;20.60;99.90
2056;DHT22;1033;52.560;13.374;2022-08-01T06:50:17;20.70;99.90
2056;DHT22;1033;52.560;13.374;2022-08-01T06:52:46;20.70;99.90
2056;DHT22;1033;52.560;13.374;2022-08-01T06:55:17;20.70;99.90
2056;DHT22;1033;52.560;13.374;2022-08-01T06:57:47;20.90;99.90
2056;DHT22;1033;52.560;13.374;2022-08-01T07:00:20;20.80;99.90
2056;DHT22;1033;52.560;13.374;2022-08-01T07:02:51;20.70;99.90
2056;DHT22;1033;52.560;13.374;2022-08-01T07:05:21;20.50;99.90
2056;DHT22;1033;52.560;13.374;2022-08-01T07:07:51;20.50;99.90
2056;DHT22;1033;52.560;13.374;2022-08-01T07:10:25;20.40;99.90
2056;DHT22;1033;52.560;13.374;2022-08-01T07:12:54;20.30;99.90
2056;DHT22;1033;52.560;13.374;2022-08-01T07:15:23;20.30;99.90
2056;DHT22;1033;52.560;13.374;2022-08-01T07:17:54;20.30;99.90
2056;DHT22;1033;52.560;13.374;2022-08-01T07:20:24;20.50;99.90
2056;DHT22;1033;52.560;13.374;2022-08-01T07:22:53;20.40;99.90
2056;DHT22;1033;52.560;13.374;2022-08-01T07:25:22;20.20;99.90
2056;DHT22;1033;52.560;13.374;2022-08-01T07:27:53;20.20;99.90
2056;DHT22;1033;52.560;13.374;2022-08-01T07:30:22;20.30;99.90
2056;DHT22;1033;52.560;13.374;2022-08-01T07:32:52;20.30;99.90
2056;DHT22;1033;52.560;13.374;2022-08-01T07:35:21;20.30;99.90
2056;DHT22;1033;52.560;13.374;2022-08-01T07:37:50;20.30;99.90
2056;DHT22;1033;52.560;13.374;2022-08-01T07:40:20;20.40;99.90
2056;DHT22;1033;52.560;13.374;2022-08-01T07:42:50;20.60;99.90
2056;DHT22;1033;52.560;13.374;2022-08-01T07:45:20;20.90;99.90
2056;DHT22;1033;52.560;13.374;2022-08-01T07:47:49;21.20;99.90
2056;DHT22;1033;52.560;13.374;2022-08-01T07:50:18;21.40;99.90
2056;DHT22;1033;52.560;13.374;2022-08-01T07:52:47;21.60;99.90
2056;DHT22;1033;52.560;13.374;2022-08-01T07:55:16;21.50;99.90
2056;DHT22;1033;52.560;13.374;2022-08-01T07:57:46;21.30;99.90
2056;DHT22;1033;52.560;13.374;2022-08-01T08:00:17;21.10;99.90
2056;DHT22;1033;52.560;13.374;2022-08-01T08:02:46;21.10;99.90
2056;DHT22;1033;52.560;13.374;2022-08-01T08:05:15;20.90;99.90
2056;DHT22;1033;52.560;13.374;2022-08-01T08:08:05;20.70;99.90
2056;DHT22;1033;52.560;13.374;2022-08-01T08:10:36;20.60;99.90
2056;DHT22;1033;52.560;13.374;2022-08-01T08:13:07;20.50;99.90
2056;DHT22;1033;52.560;13.374;2022-08-01T08:15:38;20.40;99.90
2056;DHT22;1033;52.560;13.374;2022-08-01T08:18:07;20.50;99.90
2056;DHT22;1033;52.560;13.374;2022-08-01T08:20:36;20.60;99.90
2056;DHT22;1033;52.560;13.374;2022-08-01T08:23:05;20.70;99.90
2056;DHT22;1033;52.560;13.374;2022-08-01T08:26:09;21.00;99.90
2056;DHT22;1033;52.560;13.374;2022-08-01T08:28:39;21.50;99.90
2056;DHT22;1033;52.560;13.374;2022-08-01T08:31:10;21.90;99.90
2056;DHT22;1033;52.560;13.374;2022-08-01T08:33:52;22.30;99.90
2056;DHT22;1033;52.560;13.374;2022-08-01T08:36:21;22.20;97.10
2056;DHT22;1033;52.560;13.374;2022-08-01T08:38:57;22.50;98.60
2056;DHT22;1033;52.560;13.374;2022-08-01T08:41:29;22.50;95.00
2056;DHT22;1033;52.560;13.374;2022-08-01T08:44:05;22.50;94.00
2056;DHT22;1033;52.560;13.374;2022-08-01T08:46:41;22.10;94.50
2056;DHT22;1033;52.560;13.374;2022-08-01T08:49:15;21.60;98.80
2056;DHT22;1033;52.560;13.374;2022-08-01T08:51:48;21.50;99.90
2056;DHT22;1033;52.560;13.374;2022-08-01T08:54:21;21.50;99.90
2056;DHT22;1033;52.560;13.374;2022-08-01T08:56:59;21.60;99.90
2056;DHT22;1033;52.560;13.374;2022-08-01T08:59:29;22.10;98.80
2056;DHT22;1033;52.560;13.374;2022-08-01T09:01:59;22.40;94.00
2056;DHT22;1033;52.560;13.374;2022-08-01T09:04:29;22.60;90.20
2056;DHT22;1033;52.560;13.374;2022-08-01T09:06:58;22.60;86.30
2056;DHT22;1033;52.560;13.374;2022-08-01T09:09:28;22.50;82.50
2056;DHT22;1033;52.560;13.374;2022-08-01T09:11:58;22.70;84.20
2056;DHT22;1033;52.560;13.374;2022-08-01T09:14:27;22.90;82.00
2056;DHT22;1033;52.560;13.374;2022-08-01T09:17:02;23.00;77.60
2056;DHT22;1033;52.560;13.374;2022-08-01T09:19:37;22.70;77.60
2056;DHT22;1033;52.560;13.374;2022-08-01T09:22:09;22.80;80.10
2056;DHT22;1033;52.560;13.374;2022-08-01T09:24:40;22.60;81.20
2056;DHT22;1033;52.560;13.374;2022-08-01T09:27:17;22.60;84.10
2056;DHT22;1033;52.560;13.374;2022-08-01T09:29:49;22.90;80.90
2056;DHT22;1033;52.560;13.374;2022-08-01T09:32:30;22.90;80.20
2056;DHT22;1033;52.560;13.374;2022-08-01T09:35:23;22.90;76.60
2056;DHT22;1033;52.560;13.374;2022-08-01T09:38:14;22.60;84.40
2056;DHT22;1033;52.560;13.374;2022-08-01T09:40:49;22.20;90.70
2056;DHT22;1033;52.560;13.374;2022-08-01T09:43:23;21.80;95.10
2056;DHT22;1033;52.560;13.374;2022-08-01T09:45:55;21.70;97.40
2056;DHT22;1033;52.560;13.374;2022-08-01T09:48:26;21.80;97.00
2056;DHT22;1033;52.560;13.374;2022-08-01T09:50:57;22.00;96.30
2056;DHT22;1033;52.560;13.374;2022-08-01T09:53:43;22.10;96.20
2056;DHT22;1033;52.560;13.374;2022-08-01T09:56:19;22.30;94.40
2056;DHT22;1033;52.560;13.374;2022-08-01T09:58:52;22.50;93.90
2056;DHT22;1033;52.560;13.374;2022-08-01T10:01:28;22.30;93.30
2056;DHT22;1033;52.560;13.374;2022-08-01T10:04:12;22.20;93.90
2056;DHT22;1033;52.560;13.374;2022-08-01T10:06:45;22.10;94.50
2056;DHT22;1033;52.560;13.374;2022-08-01T10:09:27;21.70;98.00
2056;DHT22;1033;52.560;13.374;2022-08-01T10:12:07;21.80;99.60
2056;DHT22;1033;52.560;13.374;2022-08-01T10:14:43;21.70;99.90
2056;DHT22;1033;52.560;13.374;2022-08-01T10:17:18;21.60;99.90
2056;DHT22;1033;52.560;13.374;2022-08-01T10:19:50;21.50;99.90
2056;DHT22;1033;52.560;13.374;2022-08-01T10:22:24;21.50;99.90
2056;DHT22;1033;52.560;13.374;2022-08-01T10:25:03;21.60;99.90
2056;DHT22;1033;52.560;13.374;2022-08-01T10:27:35;21.60;99.90
2056;DHT22;1033;52.560;13.374;2022-08-01T10:30:07;21.60;99.90
2056;DHT22;1033;52.560;13.374;2022-08-01T10:32:49;21.60;99.90
2056;DHT22;1033;52.560;13.374;2022-08-01T10:35:22;21.60;99.90
2056;DHT22;1033;52.560;13.374;2022-08-01T10:38:11;21.90;99.90
2056;DHT22;1033;52.560;13.374;2022-08-01T10:40:42;22.30;99.90
2056;DHT22;1033;52.560;13.374;2022-08-01T10:43:12;22.70;97.20
2056;DHT22;1033;52.560;13.374;2022-08-01T10:45:49;22.90;94.40
2056;DHT22;1033;52.560;13.374;2022-08-01T10:48:24;22.90;91.90
2056;DHT22;1033;52.560;13.374;2022-08-01T10:51:02;22.80;93.10
2056;DHT22;1033;52.560;13.374;2022-08-01T10:53:50;22.80;92.80
2056;DHT22;1033;52.560;13.374;2022-08-01T10:56:23;22.60;92.30
2056;DHT22;1033;52.560;13.374;2022-08-01T10:59:01;22.40;93.70
2056;DHT22;1033;52.560;13.374;2022-08-01T11:01:33;22.50;93.80
2056;DHT22;1033;52.560;13.374;2022-08-01T11:04:09;22.70;92.70
2056;DHT22;1033;52.560;13.374;2022-08-01T11:06:54;22.70;92.30
2056;DHT22;1033;52.560;13.374;2022-08-01T11:09:41;22.90;90.00
2056;DHT22;1033;52.560;13.374;2022-08-01T11:12:18;22.90;89.90
2056;DHT22;1033;52.560;13.374;2022-08-01T11:15:22;22.70;90.00
2056;DHT22;1033;52.560;13.374;2022-08-01T11:17:59;22.50;91.10
2056;DHT22;1033;52.560;13.374;2022-08-01T11:20:32;22.20;96.40
2056;DHT22;1033;52.560;13.374;2022-08-01T11:23:30;21.80;99.90
2056;DHT22;1033;52.560;13.374;2022-08-01T11:26:16;21.10;99.90
2056;DHT22;1033;52.560;13.374;2022-08-01T11:29:17;20.60;99.90
2056;DHT22;1033;52.560;13.374;2022-08-01T11:31:49;20.50;99.90
2056;DHT22;1033;52.560;13.374;2022-08-01T11:34:20;20.60;99.90
2056;DHT22;1033;52.560;13.374;2022-08-01T11:37:25;20.80;99.90
2056;DHT22;1033;52.560;13.374;2022-08-01T11:40:18;20.90;99.90
2056;DHT22;1033;52.560;13.374;2022-08-01T11:43:17;21.30;99.90
2056;DHT22;1033;52.560;13.374;2022-08-01T11:45:47;21.70;99.90
2056;DHT22;1033;52.560;13.374;2022-08-01T11:48:19;22.10;99.90
2056;DHT22;1033;52.560;13.374;2022-08-01T11:50:55;22.40;99.90
2056;DHT22;1033;52.560;13.374;2022-08-01T11:53:29;22.30;99.90
2056;DHT22;1033;52.560;13.374;2022-08-01T11:56:04;22.60;99.90
2056;DHT22;1033;52.560;13.374;2022-08-01T11:58:33;22.80;99.50
2056;DHT22;1033;52.560;13.374;2022-08-01T12:01:02;23.20;97.80
2056;DHT22;1033;52.560;13.374;2022-08-01T12:03:33;23.70;91.60
2056;DHT22;1033;52.560;13.374;2022-08-01T12:06:02;24.10;89.30
2056;DHT22;1033;52.560;13.374;2022-08-01T12:08:32;24.00;75.30
2056;DHT22;1033;52.560;13.374;2022-08-01T12:11:05;23.70;74.50
2056;DHT22;1033;52.560;13.374;2022-08-01T12:13:41;23.70;71.90
2056;DHT22;1033;52.560;13.374;2022-08-01T12:16:12;23.40;80.10
2056;DHT22;1033;52.560;13.374;2022-08-01T12:18:42;23.40;81.40
2056;DHT22;1033;52.560;13.374;2022-08-01T12:21:11;23.20;91.20
2056;DHT22;1033;52.560;13.374;2022-08-01T12:23:41;23.20;93.40
2056;DHT22;1033;52.560;13.374;2022-08-01T12:26:11;23.10;95.80
2056;DHT22;1033;52.560;13.374;2022-08-01T12:28:58;23.20;97.60
2056;DHT22;1033;52.560;13.374;2022-08-01T12:31:33;23.50;92.20
2056;DHT22;1033;52.560;13.374;2022-08-01T12:34:24;23.60;91.60
2056;DHT22;1033;52.560;13.374;2022-08-01T12:36:55;23.60;89.80
2056;DHT22;1033;52.560;13.374;2022-08-01T12:39:32;23.90;85.40
2056;DHT22;1033;52.560;13.374;2022-08-01T12:42:08;24.20;77.60
2056;DHT22;1033;52.560;13.374;2022-08-01T12:44:39;24.20;71.20
2056;DHT22;1033;52.560;13.374;2022-08-01T12:47:10;24.30;64.90
2056;DHT22;1033;52.560;13.374;2022-08-01T12:49:42;24.40;67.70
2056;DHT22;1033;52.560;13.374;2022-08-01T12:52:12;24.50;67.20
2056;DHT22;1033;52.560;13.374;2022-08-01T12:55:08;24.70;54.50
2056;DHT22;1033;52.560;13.374;2022-08-01T12:57:44;24.30;49.10
2056;DHT22;1033;52.560;13.374;2022-08-01T13:00:22;23.90;50.40
2056;DHT22;1033;52.560;13.374;2022-08-01T13:03:02;23.60;54.30
2056;DHT22;1033;52.560;13.374;2022-08-01T13:05:44;23.20;59.50
2056;DHT22;1033;52.560;13.374;2022-08-01T13:08:15;23.00;72.40
2056;DHT22;1033;52.560;13.374;2022-08-01T13:10:46;22.70;81.50
2056;DHT22;1033;52.560;13.374;2022-08-01T13:13:18;22.60;89.00
2056;DHT22;1033;52.560;13.374;2022-08-01T13:16:03;22.60;90.40
2056;DHT22;1033;52.560;13.374;2022-08-01T13:18:35;22.80;89.80
2056;DHT22;1033;52.560;13.374;2022-08-01T13:21:09;22.90;88.70
2056;DHT22;1033;52.560;13.374;2022-08-01T13:23:40;23.10;89.70
2056;DHT22;1033;52.560;13.374;2022-08-01T13:26:41;23.50;75.90
2056;DHT22;1033;52.560;13.374;2022-08-01T13:29:15;23.70;69.90
2056;DHT22;1033;52.560;13.374;2022-08-01T13:31:45;23.60;61.20
2056;DHT22;1033;52.560;13.374;2022-08-01T13:34:15;23.40;57.50
2056;DHT22;1033;52.560;13.374;2022-08-01T13:36:44;23.20;57.80
2056;DHT22;1033;52.560;13.374;2022-08-01T13:39:15;23.00;61.60
2056;DHT22;1033;52.560;13.374;2022-08-01T13:42:02;22.80;67.10
2056;DHT22;1033;52.560;13.374;2022-08-01T13:44:33;22.70;71.70
2056;DHT22;1033;52.560;13.374;2022-08-01T13:47:03;22.70;77.00
2056;DHT22;1033;52.560;13.374;2022-08-01T13:49:43;22.70;85.40
2056;DHT22;1033;52.560;13.374;2022-08-01T13:52:12;22.70;95.80
2056;DHT22;1033;52.560;13.374;2022-08-01T13:54:41;22.70;99.70
2056;DHT22;1033;52.560;13.374;2022-08-01T13:57:10;22.80;99.90
2056;DHT22;1033;52.560;13.374;2022-08-01T13:59:43;22.90;99.90
2056;DHT22;1033;52.560;13.374;2022-08-01T14:02:12;23.10;99.90
2056;DHT22;1033;52.560;13.374;2022-08-01T14:04:41;23.30;99.60
2056;DHT22;1033;52.560;13.374;2022-08-01T14:07:10;23.50;98.90
2056;DHT22;1033;52.560;13.374;2022-08-01T14:09:41;23.60;97.00
2056;DHT22;1033;52.560;13.374;2022-08-01T14:12:30;23.70;95.80
2056;DHT22;1033;52.560;13.374;2022-08-01T14:15:00;24.00;94.70
2056;DHT22;1033;52.560;13.374;2022-08-01T14:17:30;24.30;92.30
2056;DHT22;1033;52.560;13.374;2022-08-01T14:20:04;24.60;78.50
2056;DHT22;1033;52.560;13.374;2022-08-01T14:22:34;25.00;67.30
2056;DHT22;1033;52.560;13.374;2022-08-01T14:25:03;24.90;64.80
2056;DHT22;1033;52.560;13.374;2022-08-01T14:27:33;25.20;63.20
2056;DHT22;1033;52.560;13.374;2022-08-01T14:30:06;25.20;55.40
2056;DHT22;1033;52.560;13.374;2022-08-01T14:32:36;25.10;50.70
2056;DHT22;1033;52.560;13.374;2022-08-01T14:35:06;25.10;49.10
2056;DHT22;1033;52.560;13.374;2022-08-01T14:37:36;24.90;47.00
2056;DHT22;1033;52.560;13.374;2022-08-01T14:40:06;24.90;51.20
2056;DHT22;1033;52.560;13.374;2022-08-01T14:42:38;24.80;54.50
2056;DHT22;1033;52.560;13.374;2022-08-01T14:45:10;24.70;56.60
2056;DHT22;1033;52.560;13.374;2022-08-01T14:47:43;24.30;55.50
2056;DHT22;1033;52.560;13.374;2022-08-01T14:50:14;24.00;61.00
2056;DHT22;1033;52.560;13.374;2022-08-01T14:52:44;23.80;69.10
2056;DHT22;1033;52.560;13.374;2022-08-01T14:55:13;23.70;76.10
2056;DHT22;1033;52.560;13.374;2022-08-01T14:57:42;23.50;76.40
2056;DHT22;1033;52.560;13.374;2022-08-01T15:00:13;23.40;82.30
2056;DHT22;1033;52.560;13.374;2022-08-01T15:02:42;23.40;84.40
2056;DHT22;1033;52.560;13.374;2022-08-01T15:05:12;23.40;80.10
2056;DHT22;1033;52.560;13.374;2022-08-01T15:07:41;23.50;78.70
2056;DHT22;1033;52.560;13.374;2022-08-01T15:10:19;23.40;68.30
2056;DHT22;1033;52.560;13.374;2022-08-01T15:12:50;23.30;68.40
2056;DHT22;1033;52.560;13.374;2022-08-01T15:15:20;23.40;58.00
2056;DHT22;1033;52.560;13.374;2022-08-01T15:17:49;23.50;56.60
2056;DHT22;1033;52.560;13.374;2022-08-01T15:20:19;23.60;54.00
2056;DHT22;1033;52.560;13.374;2022-08-01T15:22:49;23.90;52.40
2056;DHT22;1033;52.560;13.374;2022-08-01T15:25:18;24.00;47.90
2056;DHT22;1033;52.560;13.374;2022-08-01T15:27:47;23.90;45.90
2056;DHT22;1033;52.560;13.374;2022-08-01T15:30:16;23.80;45.50
2056;DHT22;1033;52.560;13.374;2022-08-01T15:32:54;23.90;44.20
2056;DHT22;1033;52.560;13.374;2022-08-01T15:35:23;24.00;42.10
2056;DHT22;1033;52.560;13.374;2022-08-01T15:37:53;23.90;40.80
2056;DHT22;1033;52.560;13.374;2022-08-01T15:40:22;23.70;41.80
2056;DHT22;1033;52.560;13.374;2022-08-01T15:42:51;23.70;41.60
2056;DHT22;1033;52.560;13.374;2022-08-01T15:45:20;23.60;42.50
2056;DHT22;1033;52.560;13.374;2022-08-01T15:48:11;23.60;43.60
2056;DHT22;1033;52.560;13.374;2022-08-01T15:50:40;23.70;41.90
2056;DHT22;1033;52.560;13.374;2022-08-01T15:53:09;23.70;41.30
2056;DHT22;1033;52.560;13.374;2022-08-01T15:55:39;23.70;38.90
2056;DHT22;1033;52.560;13.374;2022-08-01T15:58:18;23.80;38.90
2056;DHT22;1033;52.560;13.374;2022-08-01T16:00:48;23.70;37.00
2056;DHT22;1033;52.560;13.374;2022-08-01T16:03:18;23.70;36.20
2056;DHT22;1033;52.560;13.374;2022-08-01T16:05:49;23.80;33.40
2056;DHT22;1033;52.560;13.374;2022-08-01T16:08:18;23.80;31.80
2056;DHT22;1033;52.560;13.374;2022-08-01T16:10:47;23.70;31.50
2056;DHT22;1033;52.560;13.374;2022-08-01T16:13:17;23.70;31.00
2056;DHT22;1033;52.560;13.374;2022-08-01T16:15:46;23.90;30.80
2056;DHT22;1033;52.560;13.374;2022-08-01T16:18:15;23.90;30.60
2056;DHT22;1033;52.560;13.374;2022-08-01T16:20:45;23.80;30.90
2056;DHT22;1033;52.560;13.374;2022-08-01T16:23:15;23.80;31.30
2056;DHT22;1033;52.560;13.374;2022-08-01T16:25:44;23.70;31.60
2056;DHT22;1033;52.560;13.374;2022-08-01T16:28:13;23.90;31.30